TimeEST,TemperatureF,Dew PointF,Humidity,Sea Level PressureIn,VisibilityMPH,Wind Direction,Wind SpeedMPH,Gust SpeedMPH,PrecipitationIn,Events,Conditions,WindDirDegrees,DateUTC
12:58 AM,38.7,16.5,41,30.17,10.0,WNW,10.4,-,N/A,,Clear,300,2013-02-20 05:58:00
1:58 AM,37.9,16.7,42,30.17,10.0,NW,11.5,-,N/A,,Clear,310,2013-02-20 06:58:00
2:58 AM,36.5,17.8,47,30.17,10.0,NW,10.4,-,N/A,,Clear,310,2013-02-20 07:58:00
3:58 AM,35.2,17.4,48,30.14,10.0,NW,10.4,17.3,N/A,,Clear,310,2013-02-20 08:58:00
4:58 AM,34.3,17.2,50,30.15,10.0,NW,5.8,-,N/A,,Clear,310,2013-02-20 09:58:00
5:58 AM,33.6,16.7,50,30.16,10.0,WNW,8.1,-,N/A,,Clear,300,2013-02-20 10:58:00
6:58 AM,33.4,16.3,50,30.18,10.0,WNW,8.1,-,N/A,,Partly Cloudy,300,2013-02-20 11:58:00
7:58 AM,33.8,17.1,50,30.20,10.0,Variable,5.8,-,N/A,,Partly Cloudy,0,2013-02-20 12:58:00
8:58 AM,36.9,16.3,43,30.22,10.0,NW,8.1,-,N/A,,Partly Cloudy,310,2013-02-20 13:58:00
9:58 AM,40.3,11.7,31,30.22,10.0,NW,15.0,19.6,N/A,,Scattered Clouds,310,2013-02-20 14:58:00
10:58 AM,44.2,9.1,24,30.20,10.0,NW,9.2,19.6,N/A,,Mostly Cloudy,320,2013-02-20 15:58:00
11:55 AM,46.4,6.8,20,30.18,10.0,NW,13.8,-,N/A,,Partly Cloudy,320,2013-02-20 16:55:00
11:58 AM,46.8,7.2,20,30.20,10.0,NW,12.7,-,N/A,,Mostly Cloudy,320,2013-02-20 16:58:00
12:55 PM,48.2,6.8,19,30.16,10.0,NW,10.4,20.7,N/A,,Mostly Cloudy,320,2013-02-20 17:55:00
12:58 PM,48.4,5.5,17,30.18,10.0,NW,10.4,20.7,N/A,,Mostly Cloudy,320,2013-02-20 17:58:00
2:58 PM,49.5,6.8,18,30.16,10.0,NW,10.4,-,N/A,,Overcast,310,2013-02-20 19:58:00
3:58 PM,47.8,6.8,19,30.18,10.0,WNW,13.8,-,N/A,,Overcast,300,2013-02-20 20:58:00
4:58 PM,46.0,6.1,20,30.21,10.0,WNW,13.8,18.4,N/A,,Overcast,300,2013-02-20 21:58:00
5:58 PM,44.8,9.0,23,30.17,10.0,NNW,9.2,-,N/A,,Overcast,340,2013-02-20 22:58:00
6:58 PM,42.4,11.1,28,30.14,10.0,North,5.8,-,N/A,,Overcast,10,2013-02-20 23:58:00
7:58 PM,40.8,11.3,30,30.15,10.0,NNW,8.1,-,N/A,,Mostly Cloudy,330,2013-02-21 00:58:00
8:58 PM,40.5,10.6,29,30.14,10.0,NW,5.8,-,N/A,,Mostly Cloudy,310,2013-02-21 01:58:00
9:58 PM,39.6,11.5,32,30.16,10.0,WNW,9.2,-,N/A,,Mostly Cloudy,290,2013-02-21 02:58:00
10:58 PM,39.4,13.3,34,30.15,10.0,WNW,10.4,-,N/A,,Overcast,300,2013-02-21 03:58:00
11:58 PM,38.3,14.9,39,30.13,10.0,West,10.4,-,N/A,,Overcast,280,2013-02-21 04:58:00